sensor_id;sensor_type;location;lat;lon;timestamp;P1;P2;P0
80861;PMS5003;71798;54.942;73.444;2023-12-20T00:01:55;52.75;39.00;22.00
80861;PMS5003;71798;54.942;73.444;2023-12-20T00:04:21;46.50;34.50;20.75
80861;PMS5003;71798;54.942;73.444;2023-12-20T00:06:47;46.50;36.50;20.25
80861;PMS5003;71798;54.942;73.444;2023-12-20T00:09:13;44.75;35.50;19.75
80861;PMS5003;71798;54.942;73.444;2023-12-20T00:11:39;45.00;35.00;19.00
80861;PMS5003;71798;54.942;73.444;2023-12-20T00:14:07;36.25;28.50;17.00
80861;PMS5003;71798;54.942;73.444;2023-12-20T00:16:33;41.00;32.50;18.50
80861;PMS5003;71798;54.942;73.444;2023-12-20T00:19:00;31.00;24.50;13.00
80861;PMS5003;71798;54.942;73.444;2023-12-20T00:21:26;48.50;36.00;20.00
80861;PMS5003;71798;54.942;73.444;2023-12-20T00:23:52;45.25;34.25;19.50
80861;PMS5003;71798;54.942;73.444;2023-12-20T00:26:18;53.75;39.00;21.50
80861;PMS5003;71798;54.942;73.444;2023-12-20T00:28:44;42.00;32.00;17.50
80861;PMS5003;71798;54.942;73.444;2023-12-20T00:31:10;46.00;36.00;21.00
80861;PMS5003;71798;54.942;73.444;2023-12-20T00:33:36;53.25;40.00;22.00
80861;PMS5003;71798;54.942;73.444;2023-12-20T00:36:02;61.00;47.50;27.00
80861;PMS5003;71798;54.942;73.444;2023-12-20T00:38:29;63.00;47.50;26.00
80861;PMS5003;71798;54.942;73.444;2023-12-20T00:40:55;62.75;46.50;26.25
80861;PMS5003;71798;54.942;73.444;2023-12-20T00:43:21;53.75;39.50;23.75
80861;PMS5003;71798;54.942;73.444;2023-12-20T00:45:47;53.00;40.00;22.50
80861;PMS5003;71798;54.942;73.444;2023-12-20T00:48:13;49.75;37.75;20.75
80861;PMS5003;71798;54.942;73.444;2023-12-20T00:50:39;46.50;35.25;19.75
80861;PMS5003;71798;54.942;73.444;2023-12-20T00:53:05;45.00;34.00;18.00
80861;PMS5003;71798;54.942;73.444;2023-12-20T00:55:31;44.00;35.00;19.00
80861;PMS5003;71798;54.942;73.444;2023-12-20T00:57:58;32.25;25.75;14.50
80861;PMS5003;71798;54.942;73.444;2023-12-20T01:00:25;36.00;28.00;14.25
80861;PMS5003;71798;54.942;73.444;2023-12-20T01:02:51;36.25;28.25;14.75
80861;PMS5003;71798;54.942;73.444;2023-12-20T01:05:20;43.50;34.25;21.00
80861;PMS5003;71798;54.942;73.444;2023-12-20T01:07:50;42.00;34.00;20.00
80861;PMS5003;71798;54.942;73.444;2023-12-20T01:10:16;38.00;30.50;18.00
80861;PMS5003;71798;54.942;73.444;2023-12-20T01:12:43;27.25;22.25;12.50
80861;PMS5003;71798;54.942;73.444;2023-12-20T01:15:09;45.00;33.75;19.00
80861;PMS5003;71798;54.942;73.444;2023-12-20T01:17:35;47.25;37.00;20.00
80861;PMS5003;71798;54.942;73.444;2023-12-20T01:20:02;34.50;27.25;15.00
80861;PMS5003;71798;54.942;73.444;2023-12-20T01:22:28;40.25;31.00;17.50
80861;PMS5003;71798;54.942;73.444;2023-12-20T01:24:54;45.00;34.50;19.00
80861;PMS5003;71798;54.942;73.444;2023-12-20T01:27:20;48.00;37.00;21.00
80861;PMS5003;71798;54.942;73.444;2023-12-20T01:29:46;51.00;37.75;20.50
80861;PMS5003;71798;54.942;73.444;2023-12-20T01:32:12;54.25;41.00;24.50
80861;PMS5003;71798;54.942;73.444;2023-12-20T01:34:38;43.00;35.00;21.00
80861;PMS5003;71798;54.942;73.444;2023-12-20T01:37:05;48.00;36.75;21.50
80861;PMS5003;71798;54.942;73.444;2023-12-20T01:39:31;45.25;36.75;22.00
80861;PMS5003;71798;54.942;73.444;2023-12-20T01:41:59;41.00;32.00;18.00
80861;PMS5003;71798;54.942;73.444;2023-12-20T01:44:25;43.25;33.25;19.25
80861;PMS5003;71798;54.942;73.444;2023-12-20T01:46:52;56.00;43.00;25.00
80861;PMS5003;71798;54.942;73.444;2023-12-20T01:49:18;52.00;41.00;24.00
80861;PMS5003;71798;54.942;73.444;2023-12-20T01:51:44;47.50;36.25;20.00
80861;PMS5003;71798;54.942;73.444;2023-12-20T01:54:10;48.00;38.50;22.00
80861;PMS5003;71798;54.942;73.444;2023-12-20T01:56:37;44.00;32.75;19.75
80861;PMS5003;71798;54.942;73.444;2023-12-20T01:59:03;45.25;35.50;21.75
80861;PMS5003;71798;54.942;73.444;2023-12-20T02:01:30;43.00;34.00;20.00
80861;PMS5003;71798;54.942;73.444;2023-12-20T02:03:57;27.75;22.00;12.50
80861;PMS5003;71798;54.942;73.444;2023-12-20T02:06:23;30.75;24.75;15.00
80861;PMS5003;71798;54.942;73.444;2023-12-20T02:08:50;33.50;27.50;15.75
80861;PMS5003;71798;54.942;73.444;2023-12-20T02:11:16;32.00;26.00;16.00
80861;PMS5003;71798;54.942;73.444;2023-12-20T02:13:42;33.75;27.50;16.25
80861;PMS5003;71798;54.942;73.444;2023-12-20T02:16:08;45.00;36.00;21.00
80861;PMS5003;71798;54.942;73.444;2023-12-20T02:18:35;42.50;33.00;19.00
80861;PMS5003;71798;54.942;73.444;2023-12-20T02:21:01;40.00;32.00;19.00
80861;PMS5003;71798;54.942;73.444;2023-12-20T02:23:28;41.25;31.25;18.00
80861;PMS5003;71798;54.942;73.444;2023-12-20T02:25:54;43.00;33.75;21.00
80861;PMS5003;71798;54.942;73.444;2023-12-20T02:28:20;44.00;35.75;20.75
80861;PMS5003;71798;54.942;73.444;2023-12-20T02:30:48;30.25;26.00;15.00
80861;PMS5003;71798;54.942;73.444;2023-12-20T02:33:15;39.00;31.00;17.75
80861;PMS5003;71798;54.942;73.444;2023-12-20T02:35:41;32.25;24.50;13.50
80861;PMS5003;71798;54.942;73.444;2023-12-20T02:38:07;28.50;22.25;12.25
80861;PMS5003;71798;54.942;73.444;2023-12-20T02:40:33;41.50;32.50;19.25
80861;PMS5003;71798;54.942;73.444;2023-12-20T02:42:59;43.50;32.50;18.00
80861;PMS5003;71798;54.942;73.444;2023-12-20T02:45:26;51.25;40.00;23.50
80861;PMS5003;71798;54.942;73.444;2023-12-20T02:47:58;46.75;36.25;21.25
80861;PMS5003;71798;54.942;73.444;2023-12-20T02:50:24;52.25;39.50;23.25
80861;PMS5003;71798;54.942;73.444;2023-12-20T02:52:50;51.00;39.00;22.00
80861;PMS5003;71798;54.942;73.444;2023-12-20T02:55:16;44.50;36.00;22.00
80861;PMS5003;71798;54.942;73.444;2023-12-20T02:57:42;51.00;38.00;22.25
80861;PMS5003;71798;54.942;73.444;2023-12-20T03:00:09;59.00;45.00;26.00
80861;PMS5003;71798;54.942;73.444;2023-12-20T03:02:36;55.75;42.50;25.75
80861;PMS5003;71798;54.942;73.444;2023-12-20T03:06:07;54.75;41.50;25.00
80861;PMS5003;71798;54.942;73.444;2023-12-20T03:09:37;63.50;48.25;28.25
80861;PMS5003;71798;54.942;73.444;2023-12-20T03:12:03;57.75;45.25;25.75
80861;PMS5003;71798;54.942;73.444;2023-12-20T03:14:30;61.00;46.00;26.75
80861;PMS5003;71798;54.942;73.444;2023-12-20T03:16:56;60.50;46.25;27.50
80861;PMS5003;71798;54.942;73.444;2023-12-20T03:19:22;61.00;46.00;27.00
80861;PMS5003;71798;54.942;73.444;2023-12-20T03:21:48;63.75;47.75;27.50
80861;PMS5003;71798;54.942;73.444;2023-12-20T03:24:14;70.00;55.00;31.00
80861;PMS5003;71798;54.942;73.444;2023-12-20T03:26:40;58.00;44.75;26.00
80861;PMS5003;71798;54.942;73.444;2023-12-20T03:29:06;58.00;45.00;27.00
80861;PMS5003;71798;54.942;73.444;2023-12-20T03:31:32;58.25;46.00;28.50
80861;PMS5003;71798;54.942;73.444;2023-12-20T03:33:58;59.75;46.50;29.00
80861;PMS5003;71798;54.942;73.444;2023-12-20T03:36:24;61.50;46.00;28.00
80861;PMS5003;71798;54.942;73.444;2023-12-20T03:38:50;46.75;37.25;22.00
80861;PMS5003;71798;54.942;73.444;2023-12-20T03:41:17;35.00;28.50;17.00
80861;PMS5003;71798;54.942;73.444;2023-12-20T03:43:43;51.50;41.50;26.00
80861;PMS5003;71798;54.942;73.444;2023-12-20T03:46:09;35.50;28.50;17.75
80861;PMS5003;71798;54.942;73.444;2023-12-20T03:48:35;44.25;35.00;20.00
80861;PMS5003;71798;54.942;73.444;2023-12-20T03:51:01;31.25;26.00;16.00
80861;PMS5003;71798;54.942;73.444;2023-12-20T03:53:27;26.75;21.50;14.00
80861;PMS5003;71798;54.942;73.444;2023-12-20T03:55:53;23.25;18.25;10.75
80861;PMS5003;71798;54.942;73.444;2023-12-20T03:58:20;28.75;24.25;14.00
80861;PMS5003;71798;54.942;73.444;2023-12-20T04:00:46;33.25;26.00;15.75
80861;PMS5003;71798;54.942;73.444;2023-12-20T04:03:12;44.50;34.50;19.25
80861;PMS5003;71798;54.942;73.444;2023-12-20T04:05:41;52.50;39.00;24.00
80861;PMS5003;71798;54.942;73.444;2023-12-20T04:08:07;64.00;47.50;27.00
80861;PMS5003;71798;54.942;73.444;2023-12-20T04:10:33;61.25;46.25;27.00
80861;PMS5003;71798;54.942;73.444;2023-12-20T04:12:59;38.25;29.00;15.75
80861;PMS5003;71798;54.942;73.444;2023-12-20T04:15:25;57.75;44.75;26.25
80861;PMS5003;71798;54.942;73.444;2023-12-20T04:17:51;46.25;36.50;22.25
80861;PMS5003;71798;54.942;73.444;2023-12-20T04:20:18;52.50;41.25;25.00
80861;PMS5003;71798;54.942;73.444;2023-12-20T04:22:44;45.50;36.25;21.00
80861;PMS5003;71798;54.942;73.444;2023-12-20T04:25:10;37.25;30.50;19.25
80861;PMS5003;71798;54.942;73.444;2023-12-20T04:27:36;43.00;34.00;20.25
80861;PMS5003;71798;54.942;73.444;2023-12-20T04:30:03;45.00;35.00;22.00
80861;PMS5003;71798;54.942;73.444;2023-12-20T04:32:31;44.25;35.00;22.00
80861;PMS5003;71798;54.942;73.444;2023-12-20T04:34:57;48.50;38.00;22.00
80861;PMS5003;71798;54.942;73.444;2023-12-20T04:37:23;41.00;33.00;20.00
80861;PMS5003;71798;54.942;73.444;2023-12-20T04:39:49;45.00;35.00;21.00
80861;PMS5003;71798;54.942;73.444;2023-12-20T04:42:15;40.00;31.75;19.25
80861;PMS5003;71798;54.942;73.444;2023-12-20T04:44:41;45.00;36.00;22.00
80861;PMS5003;71798;54.942;73.444;2023-12-20T04:47:10;38.25;29.50;17.25
80861;PMS5003;71798;54.942;73.444;2023-12-20T04:49:36;37.50;30.00;19.00
80861;PMS5003;71798;54.942;73.444;2023-12-20T04:52:02;36.75;29.50;16.75
80861;PMS5003;71798;54.942;73.444;2023-12-20T04:54:29;34.00;28.00;17.00
80861;PMS5003;71798;54.942;73.444;2023-12-20T04:56:55;36.25;29.00;16.75
80861;PMS5003;71798;54.942;73.444;2023-12-20T04:59:21;44.75;36.00;21.25
80861;PMS5003;71798;54.942;73.444;2023-12-20T05:01:47;44.25;34.00;19.00
80861;PMS5003;71798;54.942;73.444;2023-12-20T05:04:13;45.75;37.00;22.00
80861;PMS5003;71798;54.942;73.444;2023-12-20T05:06:39;58.00;44.00;24.00
80861;PMS5003;71798;54.942;73.444;2023-12-20T05:09:05;48.75;38.00;22.00
80861;PMS5003;71798;54.942;73.444;2023-12-20T05:11:32;51.25;40.50;23.50
80861;PMS5003;71798;54.942;73.444;2023-12-20T05:13:58;60.75;46.50;27.00
80861;PMS5003;71798;54.942;73.444;2023-12-20T05:16:24;61.00;46.25;26.75
80861;PMS5003;71798;54.942;73.444;2023-12-20T05:18:50;59.00;45.00;25.00
80861;PMS5003;71798;54.942;73.444;2023-12-20T05:21:18;81.00;64.25;34.75
80861;PMS5003;71798;54.942;73.444;2023-12-20T05:23:44;53.25;41.25;24.75
80861;PMS5003;71798;54.942;73.444;2023-12-20T05:26:11;53.50;41.75;26.00
80861;PMS5003;71798;54.942;73.444;2023-12-20T05:28:37;54.25;42.25;25.25
80861;PMS5003;71798;54.942;73.444;2023-12-20T05:31:03;69.50;53.00;31.00
80861;PMS5003;71798;54.942;73.444;2023-12-20T05:33:29;64.25;49.00;29.00
80861;PMS5003;71798;54.942;73.444;2023-12-20T05:36:11;55.50;43.00;24.50
80861;PMS5003;71798;54.942;73.444;2023-12-20T05:38:39;57.50;42.75;25.00
80861;PMS5003;71798;54.942;73.444;2023-12-20T05:41:05;52.00;40.00;23.25
80861;PMS5003;71798;54.942;73.444;2023-12-20T05:43:31;43.75;35.00;20.75
80861;PMS5003;71798;54.942;73.444;2023-12-20T05:45:57;53.00;41.25;25.25
80861;PMS5003;71798;54.942;73.444;2023-12-20T05:48:23;52.00;40.00;23.50
80861;PMS5003;71798;54.942;73.444;2023-12-20T05:50:49;48.00;38.00;22.00
80861;PMS5003;71798;54.942;73.444;2023-12-20T05:53:15;42.00;33.00;20.00
80861;PMS5003;71798;54.942;73.444;2023-12-20T05:55:42;55.00;41.00;22.50
80861;PMS5003;71798;54.942;73.444;2023-12-20T05:58:08;53.25;40.00;23.50
80861;PMS5003;71798;54.942;73.444;2023-12-20T06:00:34;47.50;38.00;21.75
80861;PMS5003;71798;54.942;73.444;2023-12-20T06:03:00;46.25;34.50;19.75
80861;PMS5003;71798;54.942;73.444;2023-12-20T06:05:26;51.00;38.00;22.00
80861;PMS5003;71798;54.942;73.444;2023-12-20T06:07:52;43.00;33.00;20.00
80861;PMS5003;71798;54.942;73.444;2023-12-20T06:10:18;49.00;39.00;22.25
80861;PMS5003;71798;54.942;73.444;2023-12-20T06:12:44;48.00;38.00;23.00
80861;PMS5003;71798;54.942;73.444;2023-12-20T06:15:12;43.50;33.50;19.75
80861;PMS5003;71798;54.942;73.444;2023-12-20T06:17:39;42.00;34.00;18.75
80861;PMS5003;71798;54.942;73.444;2023-12-20T06:20:05;48.75;36.25;20.75
80861;PMS5003;71798;54.942;73.444;2023-12-20T06:22:34;42.50;33.75;20.75
80861;PMS5003;71798;54.942;73.444;2023-12-20T06:25:00;52.50;41.00;25.00
80861;PMS5003;71798;54.942;73.444;2023-12-20T06:27:26;49.75;38.00;22.00
80861;PMS5003;71798;54.942;73.444;2023-12-20T06:29:52;42.00;32.00;18.00
80861;PMS5003;71798;54.942;73.444;2023-12-20T06:32:18;45.00;35.00;20.00
80861;PMS5003;71798;54.942;73.444;2023-12-20T06:34:44;43.25;32.75;20.00
80861;PMS5003;71798;54.942;73.444;2023-12-20T06:37:10;41.00;32.50;18.00
80861;PMS5003;71798;54.942;73.444;2023-12-20T06:39:36;40.25;32.50;20.00
80861;PMS5003;71798;54.942;73.444;2023-12-20T06:42:03;34.75;28.50;18.00
80861;PMS5003;71798;54.942;73.444;2023-12-20T06:44:29;38.25;30.25;19.00
80861;PMS5003;71798;54.942;73.444;2023-12-20T06:46:55;40.00;31.00;19.00
80861;PMS5003;71798;54.942;73.444;2023-12-20T06:49:21;43.75;34.00;18.25
80861;PMS5003;71798;54.942;73.444;2023-12-20T06:51:47;35.00;27.50;16.00
80861;PMS5003;71798;54.942;73.444;2023-12-20T06:54:13;40.00;32.00;18.00
80861;PMS5003;71798;54.942;73.444;2023-12-20T06:56:39;42.50;33.75;19.25
80861;PMS5003;71798;54.942;73.444;2023-12-20T06:59:06;43.50;33.75;18.00
80861;PMS5003;71798;54.942;73.444;2023-12-20T07:01:32;27.50;23.00;12.50
80861;PMS5003;71798;54.942;73.444;2023-12-20T07:03:58;30.00;24.75;16.00
80861;PMS5003;71798;54.942;73.444;2023-12-20T07:06:25;38.75;31.00;18.00
80861;PMS5003;71798;54.942;73.444;2023-12-20T07:08:52;31.00;26.00;15.00
80861;PMS5003;71798;54.942;73.444;2023-12-20T07:11:18;31.25;26.25;16.00
80861;PMS5003;71798;54.942;73.444;2023-12-20T07:13:44;25.25;20.00;11.00
80861;PMS5003;71798;54.942;73.444;2023-12-20T07:16:10;23.75;20.50;11.75
80861;PMS5003;71798;54.942;73.444;2023-12-20T07:18:36;39.75;30.50;18.50
80861;PMS5003;71798;54.942;73.444;2023-12-20T07:21:03;37.00;28.25;16.50
80861;PMS5003;71798;54.942;73.444;2023-12-20T07:23:29;43.50;35.00;21.00
80861;PMS5003;71798;54.942;73.444;2023-12-20T07:25:55;41.25;32.50;18.75
80861;PMS5003;71798;54.942;73.444;2023-12-20T07:28:21;43.00;33.00;19.00
80861;PMS5003;71798;54.942;73.444;2023-12-20T07:30:47;42.25;34.00;20.00
80861;PMS5003;71798;54.942;73.444;2023-12-20T07:33:13;29.75;24.75;15.00
80861;PMS5003;71798;54.942;73.444;2023-12-20T07:35:39;40.00;33.00;20.00
80861;PMS5003;71798;54.942;73.444;2023-12-20T07:38:06;48.00;38.00;23.25
80861;PMS5003;71798;54.942;73.444;2023-12-20T07:40:32;31.75;25.00;14.00
80861;PMS5003;71798;54.942;73.444;2023-12-20T07:42:58;41.50;33.75;20.00
80861;PMS5003;71798;54.942;73.444;2023-12-20T07:45:24;31.75;25.50;15.00
80861;PMS5003;71798;54.942;73.444;2023-12-20T07:47:50;43.50;34.00;20.75
80861;PMS5003;71798;54.942;73.444;2023-12-20T07:50:16;35.50;28.75;16.00
80861;PMS5003;71798;54.942;73.444;2023-12-20T07:52:42;24.50;21.25;13.75
80861;PMS5003;71798;54.942;73.444;2023-12-20T07:55:09;34.50;29.00;18.00
80861;PMS5003;71798;54.942;73.444;2023-12-20T07:57:35;43.00;33.00;20.00
80861;PMS5003;71798;54.942;73.444;2023-12-20T08:00:01;33.00;27.00;15.25
80861;PMS5003;71798;54.942;73.444;2023-12-20T08:02:30;40.00;31.25;17.75
80861;PMS5003;71798;54.942;73.444;2023-12-20T08:04:56;31.50;24.75;14.00
80861;PMS5003;71798;54.942;73.444;2023-12-20T08:07:22;29.25;23.75;14.00
80861;PMS5003;71798;54.942;73.444;2023-12-20T08:09:48;38.50;31.50;18.75
80861;PMS5003;71798;54.942;73.444;2023-12-20T08:12:14;40.00;32.00;19.25
80861;PMS5003;71798;54.942;73.444;2023-12-20T08:14:42;25.25;22.00;13.00
80861;PMS5003;71798;54.942;73.444;2023-12-20T08:17:08;36.75;29.00;16.00
80861;PMS5003;71798;54.942;73.444;2023-12-20T08:19:34;52.75;40.50;23.00
80861;PMS5003;71798;54.942;73.444;2023-12-20T08:22:01;56.25;42.00;25.00
80861;PMS5003;71798;54.942;73.444;2023-12-20T08:24:27;51.75;41.00;24.25
80861;PMS5003;71798;54.942;73.444;2023-12-20T08:26:53;38.50;32.00;18.25
80861;PMS5003;71798;54.942;73.444;2023-12-20T08:29:19;44.25;35.00;21.00
80861;PMS5003;71798;54.942;73.444;2023-12-20T08:31:45;43.75;32.75;19.00
80861;PMS5003;71798;54.942;73.444;2023-12-20T08:34:12;46.00;37.00;22.00
80861;PMS5003;71798;54.942;73.444;2023-12-20T08:36:40;41.00;32.50;18.00
80861;PMS5003;71798;54.942;73.444;2023-12-20T08:39:06;43.00;34.00;20.00
80861;PMS5003;71798;54.942;73.444;2023-12-20T08:41:34;41.00;30.75;19.25
80861;PMS5003;71798;54.942;73.444;2023-12-20T08:44:01;23.50;18.50;10.50
80861;PMS5003;71798;54.942;73.444;2023-12-20T08:46:28;33.00;27.00;16.75
80861;PMS5003;71798;54.942;73.444;2023-12-20T08:48:54;28.75;24.75;15.75
80861;PMS5003;71798;54.942;73.444;2023-12-20T08:51:20;34.00;26.50;16.00
80861;PMS5003;71798;54.942;73.444;2023-12-20T08:53:48;41.00;31.25;18.00
80861;PMS5003;71798;54.942;73.444;2023-12-20T08:56:15;39.00;31.00;17.00
80861;PMS5003;71798;54.942;73.444;2023-12-20T08:58:41;35.00;28.00;16.75
80861;PMS5003;71798;54.942;73.444;2023-12-20T09:01:07;22.25;19.00;11.00
80861;PMS5003;71798;54.942;73.444;2023-12-20T09:03:33;20.75;17.50;9.75
80861;PMS5003;71798;54.942;73.444;2023-12-20T09:06:00;32.00;26.00;16.25
80861;PMS5003;71798;54.942;73.444;2023-12-20T09:08:26;30.75;25.75;15.50
80861;PMS5003;71798;54.942;73.444;2023-12-20T09:10:52;41.00;33.00;19.00
80861;PMS5003;71798;54.942;73.444;2023-12-20T09:13:18;41.25;32.25;18.75
80861;PMS5003;71798;54.942;73.444;2023-12-20T09:15:44;58.00;43.00;24.00
80861;PMS5003;71798;54.942;73.444;2023-12-20T09:18:10;44.75;36.00;21.00
80861;PMS5003;71798;54.942;73.444;2023-12-20T09:20:36;49.00;37.25;23.00
80861;PMS5003;71798;54.942;73.444;2023-12-20T09:23:02;40.25;32.25;19.00
80861;PMS5003;71798;54.942;73.444;2023-12-20T09:25:28;52.00;41.00;25.00
80861;PMS5003;71798;54.942;73.444;2023-12-20T09:27:55;50.50;40.00;22.75
80861;PMS5003;71798;54.942;73.444;2023-12-20T09:30:21;49.25;38.25;23.00
80861;PMS5003;71798;54.942;73.444;2023-12-20T09:32:48;53.00;40.25;24.25
80861;PMS5003;71798;54.942;73.444;2023-12-20T09:35:14;39.25;31.75;19.75
80861;PMS5003;71798;54.942;73.444;2023-12-20T09:37:40;44.25;36.00;21.00
80861;PMS5003;71798;54.942;73.444;2023-12-20T09:40:10;39.00;30.00;17.75
80861;PMS5003;71798;54.942;73.444;2023-12-20T09:42:56;29.25;24.50;15.00
80861;PMS5003;71798;54.942;73.444;2023-12-20T09:45:22;39.00;32.00;18.00
80861;PMS5003;71798;54.942;73.444;2023-12-20T09:47:58;34.50;28.00;16.75
80861;PMS5003;71798;54.942;73.444;2023-12-20T09:50:24;31.25;26.00;16.00
80861;PMS5003;71798;54.942;73.444;2023-12-20T09:52:51;37.00;30.75;18.25
80861;PMS5003;71798;54.942;73.444;2023-12-20T09:55:18;40.00;31.00;19.00
80861;PMS5003;71798;54.942;73.444;2023-12-20T09:57:45;37.50;29.75;17.50
80861;PMS5003;71798;54.942;73.444;2023-12-20T10:00:12;45.00;36.00;22.00
80861;PMS5003;71798;54.942;73.444;2023-12-20T10:02:40;45.00;35.50;23.00
80861;PMS5003;71798;54.942;73.444;2023-12-20T10:05:08;48.75;38.00;23.50
80861;PMS5003;71798;54.942;73.444;2023-12-20T10:07:34;56.25;43.25;25.25
80861;PMS5003;71798;54.942;73.444;2023-12-20T10:10:01;43.50;33.75;20.50
80861;PMS5003;71798;54.942;73.444;2023-12-20T10:12:28;46.00;35.00;21.75
80861;PMS5003;71798;54.942;73.444;2023-12-20T10:14:54;37.75;30.00;18.00
80861;PMS5003;71798;54.942;73.444;2023-12-20T10:17:20;31.75;25.25;14.25
80861;PMS5003;71798;54.942;73.444;2023-12-20T10:19:47;36.25;28.25;16.50
80861;PMS5003;71798;54.942;73.444;2023-12-20T10:22:13;37.50;29.00;17.00
80861;PMS5003;71798;54.942;73.444;2023-12-20T10:24:40;38.25;31.25;18.00
80861;PMS5003;71798;54.942;73.444;2023-12-20T10:27:07;38.75;31.00;18.75
80861;PMS5003;71798;54.942;73.444;2023-12-20T10:29:35;36.00;27.50;14.75
80861;PMS5003;71798;54.942;73.444;2023-12-20T10:34:45;47.00;37.25;21.75
80861;PMS5003;71798;54.942;73.444;2023-12-20T10:37:11;47.00;38.00;24.00
80861;PMS5003;71798;54.942;73.444;2023-12-20T10:39:37;55.00;41.00;24.00
80861;PMS5003;71798;54.942;73.444;2023-12-20T10:42:04;45.00;35.00;22.00
80861;PMS5003;71798;54.942;73.444;2023-12-20T10:44:32;48.75;38.50;23.50
80861;PMS5003;71798;54.942;73.444;2023-12-20T10:46:58;52.00;41.00;24.00
80861;PMS5003;71798;54.942;73.444;2023-12-20T10:49:25;48.00;38.00;22.25
80861;PMS5003;71798;54.942;73.444;2023-12-20T10:51:52;54.75;41.75;24.75
80861;PMS5003;71798;54.942;73.444;2023-12-20T10:54:20;55.00;42.50;25.25
80861;PMS5003;71798;54.942;73.444;2023-12-20T10:56:46;55.25;43.00;24.25
80861;PMS5003;71798;54.942;73.444;2023-12-20T10:59:12;53.00;42.00;25.00
80861;PMS5003;71798;54.942;73.444;2023-12-20T11:01:42;49.50;39.50;23.00
80861;PMS5003;71798;54.942;73.444;2023-12-20T11:04:08;56.50;44.75;26.50
80861;PMS5003;71798;54.942;73.444;2023-12-20T11:06:43;60.75;45.75;27.00
80861;PMS5003;71798;54.942;73.444;2023-12-20T11:09:25;56.00;44.00;26.25
80861;PMS5003;71798;54.942;73.444;2023-12-20T11:17:09;56.75;44.75;27.00
80861;PMS5003;71798;54.942;73.444;2023-12-20T11:20:24;64.25;50.00;28.50
80861;PMS5003;71798;54.942;73.444;2023-12-20T11:22:30;66.00;50.25;29.25
80861;PMS5003;71798;54.942;73.444;2023-12-20T11:25:14;62.25;48.25;29.75
80861;PMS5003;71798;54.942;73.444;2023-12-20T11:27:41;54.00;42.00;25.00
80861;PMS5003;71798;54.942;73.444;2023-12-20T11:30:07;53.75;39.50;24.25
80861;PMS5003;71798;54.942;73.444;2023-12-20T11:32:35;53.00;42.00;27.00
80861;PMS5003;71798;54.942;73.444;2023-12-20T11:37:36;55.00;42.25;25.50
80861;PMS5003;71798;54.942;73.444;2023-12-20T11:40:05;62.75;49.00;29.00
80861;PMS5003;71798;54.942;73.444;2023-12-20T11:42:38;39.00;30.25;17.75
80861;PMS5003;71798;54.942;73.444;2023-12-20T11:45:05;48.50;38.00;23.00
80861;PMS5003;71798;54.942;73.444;2023-12-20T11:47:31;35.75;29.50;17.00
80861;PMS5003;71798;54.942;73.444;2023-12-20T11:49:57;41.25;32.75;19.75
80861;PMS5003;71798;54.942;73.444;2023-12-20T11:52:26;38.00;30.25;18.50
80861;PMS5003;71798;54.942;73.444;2023-12-20T11:54:52;29.00;22.75;15.00
80861;PMS5003;71798;54.942;73.444;2023-12-20T11:57:18;24.75;20.75;11.50
80861;PMS5003;71798;54.942;73.444;2023-12-20T11:59:45;35.00;27.50;17.00
80861;PMS5003;71798;54.942;73.444;2023-12-20T12:02:14;37.50;30.50;18.25
80861;PMS5003;71798;54.942;73.444;2023-12-20T12:04:43;61.00;47.00;28.00
80861;PMS5003;71798;54.942;73.444;2023-12-20T12:07:09;52.00;39.75;24.00
80861;PMS5003;71798;54.942;73.444;2023-12-20T12:09:35;36.00;29.00;18.00
80861;PMS5003;71798;54.942;73.444;2023-12-20T12:12:01;22.75;19.75;12.25
80861;PMS5003;71798;54.942;73.444;2023-12-20T12:14:27;45.50;35.75;20.75
80861;PMS5003;71798;54.942;73.444;2023-12-20T12:16:54;36.50;29.50;17.50
80861;PMS5003;71798;54.942;73.444;2023-12-20T12:19:21;42.00;33.00;20.00
80861;PMS5003;71798;54.942;73.444;2023-12-20T12:21:47;44.75;35.50;21.25
80861;PMS5003;71798;54.942;73.444;2023-12-20T12:24:28;47.50;37.00;22.50
80861;PMS5003;71798;54.942;73.444;2023-12-20T12:26:56;43.75;34.75;22.00
80861;PMS5003;71798;54.942;73.444;2023-12-20T12:29:23;50.00;41.25;25.00
80861;PMS5003;71798;54.942;73.444;2023-12-20T12:32:07;52.75;42.25;26.00
80861;PMS5003;71798;54.942;73.444;2023-12-20T12:34:51;46.25;36.25;22.75
80861;PMS5003;71798;54.942;73.444;2023-12-20T12:37:34;36.25;30.00;18.00
80861;PMS5003;71798;54.942;73.444;2023-12-20T12:40:16;27.50;23.00;13.00
80861;PMS5003;71798;54.942;73.444;2023-12-20T12:42:43;38.00;29.00;16.00
80861;PMS5003;71798;54.942;73.444;2023-12-20T12:45:17;37.00;30.25;17.50
80861;PMS5003;71798;54.942;73.444;2023-12-20T12:47:56;39.50;31.50;17.25
80861;PMS5003;71798;54.942;73.444;2023-12-20T12:50:22;38.00;28.50;16.25
80861;PMS5003;71798;54.942;73.444;2023-12-20T12:52:49;48.25;38.25;21.50
80861;PMS5003;71798;54.942;73.444;2023-12-20T12:55:15;33.00;26.50;15.00
80861;PMS5003;71798;54.942;73.444;2023-12-20T12:57:42;54.50;40.50;22.00
80861;PMS5003;71798;54.942;73.444;2023-12-20T13:00:09;48.00;38.00;22.00
80861;PMS5003;71798;54.942;73.444;2023-12-20T13:02:35;44.75;35.50;20.00
80861;PMS5003;71798;54.942;73.444;2023-12-20T13:05:04;50.75;40.00;24.50
80861;PMS5003;71798;54.942;73.444;2023-12-20T13:07:30;53.00;40.00;21.75
80861;PMS5003;71798;54.942;73.444;2023-12-20T13:10:03;50.50;39.00;23.25
80861;PMS5003;71798;54.942;73.444;2023-12-20T13:12:30;49.50;37.00;20.75
80861;PMS5003;71798;54.942;73.444;2023-12-20T13:15:09;60.25;46.50;27.00
80861;PMS5003;71798;54.942;73.444;2023-12-20T13:17:35;63.25;48.50;29.00
80861;PMS5003;71798;54.942;73.444;2023-12-20T13:20:15;43.25;34.75;20.00
80861;PMS5003;71798;54.942;73.444;2023-12-20T13:22:42;54.00;42.00;24.00
80861;PMS5003;71798;54.942;73.444;2023-12-20T13:25:09;46.75;38.00;22.75
80861;PMS5003;71798;54.942;73.444;2023-12-20T13:27:35;39.50;31.75;18.75
80861;PMS5003;71798;54.942;73.444;2023-12-20T13:30:01;41.25;31.00;19.00
80861;PMS5003;71798;54.942;73.444;2023-12-20T13:32:27;35.25;28.00;16.25
80861;PMS5003;71798;54.942;73.444;2023-12-20T13:35:06;33.25;26.00;15.50
80861;PMS5003;71798;54.942;73.444;2023-12-20T13:37:44;37.50;31.00;18.00
80861;PMS5003;71798;54.942;73.444;2023-12-20T13:40:10;42.50;33.00;19.50
80861;PMS5003;71798;54.942;73.444;2023-12-20T13:42:36;41.00;31.75;18.50
80861;PMS5003;71798;54.942;73.444;2023-12-20T13:45:02;38.50;30.25;16.75
80861;PMS5003;71798;54.942;73.444;2023-12-20T13:47:30;36.00;28.00;16.00